Time;durP1;ratioP1;P1;durP2;ratioP2;P2;SDS_P1;SDS_P2;PMS_P1;PMS_P2;Temp;Humidity;BMP_temperature;BMP_pressure;BME280_temperature;BME280_humidity;BME280_pressure;Samples;Min_cycle;Max_cycle;Signal;HPM_P1;HPM_P2
2022/08/25 00:01:57;;;;;;;17.35;13.13;;;;;;;18.36;100.00;99304.47;4846110;29;20040;-84
2022/08/25 00:04:24;;;;;;;19.52;14.23;;;;;;;18.58;100.00;99337.53;4846020;29;20085;-83
2022/08/25 00:06:54;;;;;;;21.13;15.13;;;;;;;18.37;100.00;99306.06;4835233;29;20496;-84
2022/08/25 00:09:23;;;;;;;21.60;15.10;;;;;;;18.73;100.00;99352.91;4864146;29;20049;-84
2022/08/25 00:11:50;;;;;;;15.80;13.43;;;;;;;18.82;100.00;99364.75;4847303;29;20084;-83
2022/08/25 00:14:20;;;;;;;21.10;14.07;;;;;;;18.87;100.00;99362.19;4836029;29;20033;-84
2022/08/25 00:16:49;;;;;;;19.38;14.30;;;;;;;18.79;100.00;99360.75;4851357;29;20114;-84
2022/08/25 00:19:19;;;;;;;16.70;13.73;;;;;;;18.91;100.00;99368.66;4846897;29;20038;-83
2022/08/25 00:21:45;;;;;;;19.70;12.73;;;;;;;19.02;100.00;99379.47;4851106;29;20045;-85
2022/08/25 00:24:13;;;;;;;17.95;14.10;;;;;;;18.94;100.00;99365.50;4847486;29;20041;-85
2022/08/25 00:26:42;;;;;;;19.83;14.13;;;;;;;18.90;100.00;99368.88;4847630;29;20041;-85
2022/08/25 00:29:09;;;;;;;22.25;14.95;;;;;;;18.87;100.00;99359.53;4853014;29;20423;-84
2022/08/25 00:31:36;;;;;;;18.55;14.15;;;;;;;18.86;100.00;99359.78;4836353;29;20582;-84
2022/08/25 00:34:03;;;;;;;24.77;15.82;;;;;;;18.90;100.00;99371.53;4847558;29;20403;-85
2022/08/25 00:36:28;;;;;;;21.30;14.65;;;;;;;18.87;100.00;99362.19;4852161;29;20364;-84
2022/08/25 00:38:55;;;;;;;20.55;14.77;;;;;;;18.83;100.00;99347.75;4846772;29;20040;-84
2022/08/25 00:41:23;;;;;;;23.83;14.93;;;;;;;18.80;100.00;99351.72;4845456;29;20044;-84
2022/08/25 00:43:55;;;;;;;20.00;15.57;;;;;;;18.72;100.00;99361.94;4848533;29;20098;-84
2022/08/25 00:46:24;;;;;;;20.88;15.02;;;;;;;18.69;100.00;99366.69;4851920;29;20113;-84
2022/08/25 00:48:57;;;;;;;23.10;14.65;;;;;;;18.54;100.00;99372.53;4856894;29;20034;-84
2022/08/25 00:51:35;;;;;;;18.70;14.32;;;;;;;18.58;100.00;99364.91;4851293;29;20090;-84
2022/08/25 00:54:03;;;;;;;18.38;13.85;;;;;;;18.55;100.00;99358.19;4853524;29;20037;-84
2022/08/25 00:56:30;;;;;;;21.23;15.48;;;;;;;18.58;100.00;99356.94;4845747;29;20174;-83
2022/08/25 00:58:57;;;;;;;21.52;15.43;;;;;;;18.58;100.00;99356.94;4845459;29;20044;-84
2022/08/25 01:01:22;;;;;;;19.27;15.18;;;;;;;18.51;100.00;99358.94;4849553;29;20032;-84
2022/08/25 01:03:48;;;;;;;18.65;14.80;;;;;;;18.42;100.00;99345.22;4852588;29;20038;-83
2022/08/25 01:06:15;;;;;;;21.05;13.57;;;;;;;18.34;100.00;99354.38;4852491;29;20033;-83
2022/08/25 01:08:41;;;;;;;17.10;13.02;;;;;;;18.37;100.00;99356.56;4845656;29;20034;-84
2022/08/25 01:11:08;;;;;;;23.88;13.75;;;;;;;18.32;100.00;99353.81;4850590;29;20032;-85
2022/08/25 01:13:39;;;;;;;19.65;13.15;;;;;;;18.25;100.00;99350.47;4868552;29;20041;-84
2022/08/25 01:16:05;;;;;;;17.00;13.15;;;;;;;18.13;100.00;99354.00;4854870;29;20086;-84
2022/08/25 01:18:46;;;;;;;20.23;13.00;;;;;;;18.02;100.00;99338.91;4847613;29;20057;-84
2022/08/25 01:21:16;;;;;;;17.63;12.10;;;;;;;18.10;100.00;99357.16;4835957;29;20499;-84
2022/08/25 01:23:42;;;;;;;16.27;11.90;;;;;;;17.94;100.00;99355.19;4850382;29;20450;-84
2022/08/25 01:26:12;;;;;;;15.90;11.13;;;;;;;17.92;100.00;99367.91;4849816;29;20030;-84
2022/08/25 01:29:19;;;;;;;17.40;11.40;;;;;;;17.88;100.00;99372.88;4852312;29;20125;-84
2022/08/25 01:31:28;;;;;;;15.98;11.95;;;;;;;17.83;100.00;99368.25;4848211;29;20030;-84
2022/08/25 01:33:54;;;;;;;16.98;11.20;;;;;;;17.76;100.00;99351.66;4848179;29;20116;-84
2022/08/25 01:36:21;;;;;;;14.93;10.68;;;;;;;17.84;100.00;99356.59;4846533;29;20049;-84
2022/08/25 01:38:47;;;;;;;16.35;11.48;;;;;;;17.89;100.00;99363.84;4852933;29;20046;-85
2022/08/25 01:41:20;;;;;;;13.50;10.95;;;;;;;17.93;100.00;99365.00;4849088;29;20069;-83
2022/08/25 01:43:46;;;;;;;12.77;10.57;;;;;;;17.84;100.00;99353.94;4840833;29;20395;-84
2022/08/25 01:46:13;;;;;;;13.02;10.45;;;;;;;17.80;100.00;99350.13;4848394;29;20041;-84
2022/08/25 01:48:39;;;;;;;17.67;10.05;;;;;;;17.65;100.00;99355.13;4855205;29;20048;-83
2022/08/25 01:51:04;;;;;;;20.15;11.07;;;;;;;17.54;100.00;99360.22;4853795;29;20471;-84
2022/08/25 01:53:30;;;;;;;17.02;11.55;;;;;;;17.41;100.00;99352.50;4853871;29;20040;-84
2022/08/25 01:56:04;;;;;;;15.75;11.25;;;;;;;17.51;100.00;99352.75;4849331;29;20060;-83
2022/08/25 01:58:35;;;;;;;21.30;12.77;;;;;;;17.55;100.00;99353.88;4868962;29;20041;-84
2022/08/25 02:01:05;;;;;;;16.02;11.50;;;;;;;17.71;100.00;99359.53;4853301;29;20094;-85
2022/08/25 02:03:32;;;;;;;17.20;13.13;;;;;;;17.68;100.00;99350.16;4855339;29;20033;-83
2022/08/25 02:06:00;;;;;;;22.75;15.38;;;;;;;17.75;100.00;99358.00;4859729;29;20052;-85
2022/08/25 02:08:25;;;;;;;22.48;17.00;;;;;;;17.68;100.00;99362.63;4854476;29;20038;-83
2022/08/25 02:10:54;;;;;;;24.85;17.67;;;;;;;17.74;100.00;99356.41;4868460;29;20033;-84
2022/08/25 02:13:20;;;;;;;27.15;19.80;;;;;;;17.63;100.00;99349.25;4851490;29;20034;-84
2022/08/25 02:15:58;;;;;;;27.35;18.58;;;;;;;17.73;100.00;99340.69;4850630;29;20041;-84
2022/08/25 02:18:24;;;;;;;26.30;18.90;;;;;;;17.73;100.00;99333.53;4856020;29;20045;-84
2022/08/25 02:20:50;;;;;;;27.00;16.70;;;;;;;17.69;100.00;99340.38;4849681;29;20041;-83
2022/08/25 02:23:16;;;;;;;24.00;16.45;;;;;;;17.69;100.00;99340.38;4855830;29;20037;-83
2022/08/25 02:25:42;;;;;;;25.38;15.75;;;;;;;17.63;100.00;99343.94;4851863;29;20523;-84
2022/08/25 02:28:08;;;;;;;21.17;13.50;;;;;;;17.65;100.00;99336.53;4851938;29;20057;-84
2022/08/25 02:30:35;;;;;;;17.05;12.10;;;;;;;17.67;100.00;99345.06;4850640;29;20140;-84
2022/08/25 02:33:01;;;;;;;15.45;10.85;;;;;;;17.46;100.00;99338.56;4849483;29;20088;-84
2022/08/25 02:35:26;;;;;;;15.80;10.25;;;;;;;17.44;100.00;99341.41;4847329;29;20117;-84
2022/08/25 02:37:52;;;;;;;20.20;10.48;;;;;;;17.40;100.00;99341.09;4858735;29;20033;-83
2022/08/25 02:40:20;;;;;;;17.10;10.55;;;;;;;17.31;100.00;99336.38;4859420;29;20045;-84
2022/08/25 02:42:50;;;;;;;20.17;10.50;;;;;;;17.32;100.00;99333.47;4852263;29;20049;-85
2022/08/25 02:45:16;;;;;;;15.88;9.27;;;;;;;17.39;100.00;99339.50;4849649;29;20038;-84
2022/08/25 02:47:41;;;;;;;18.33;10.05;;;;;;;17.38;100.00;99342.34;4854160;29;20038;-84
2022/08/25 02:50:08;;;;;;;14.80;8.93;;;;;;;17.35;100.00;99348.13;4851200;29;20034;-83
2022/08/25 02:52:36;;;;;;;15.88;9.00;;;;;;;17.27;100.00;99352.72;4862549;29;20095;-83
2022/08/25 02:55:04;;;;;;;15.02;8.35;;;;;;;17.28;100.00;99337.63;4852974;29;20440;-83
2022/08/25 02:57:30;;;;;;;15.25;8.63;;;;;;;17.31;100.00;99331.06;4848947;29;20057;-83
2022/08/25 02:59:57;;;;;;;16.50;8.98;;;;;;;17.14;100.00;99337.06;4852261;29;20034;-84
2022/08/25 03:02:24;;;;;;;10.93;7.43;;;;;;;17.12;100.00;99323.22;4853352;29;20034;-83
2022/08/25 03:04:52;;;;;;;12.68;8.10;;;;;;;17.25;100.00;99322.19;4851595;29;20458;-84
2022/08/25 03:07:19;;;;;;;11.45;7.85;;;;;;;17.34;100.00;99320.00;4853667;29;20037;-84
2022/08/25 03:09:46;;;;;;;19.08;7.72;;;;;;;17.26;100.00;99302.56;4852114;29;20113;-85
2022/08/25 03:12:11;;;;;;;16.38;7.53;;;;;;;17.30;100.00;99310.88;4847509;29;20081;-85
2022/08/25 03:14:39;;;;;;;17.95;8.82;;;;;;;17.24;100.00;99317.91;4849134;29;20393;-84
2022/08/25 03:17:06;;;;;;;16.10;8.13;;;;;;;17.21;100.00;99318.38;4851783;29;20090;-84
2022/08/25 03:19:32;;;;;;;18.83;8.85;;;;;;;17.09;100.00;99313.06;4850081;29;20104;-84
2022/08/25 03:21:58;;;;;;;14.73;8.15;;;;;;;17.11;100.00;99309.16;4863924;29;20094;-84
2022/08/25 03:24:24;;;;;;;10.65;7.25;;;;;;;17.21;100.00;99303.25;4858193;29;20090;-84
2022/08/25 03:26:54;;;;;;;18.60;8.82;;;;;;;17.15;100.00;99300.72;4862637;29;20038;-84
2022/08/25 03:29:29;;;;;;;17.00;7.90;;;;;;;17.07;100.00;99291.25;4853805;29;20034;-85
2022/08/25 03:31:59;;;;;;;15.77;7.25;;;;;;;17.09;100.00;99297.16;4848050;29;20032;-84
2022/08/25 03:34:28;;;;;;;12.32;7.78;;;;;;;17.02;100.00;99299.13;4849905;29;20068;-84
2022/08/25 03:36:55;;;;;;;14.75;8.68;;;;;;;16.73;100.00;99306.91;4854991;29;20044;-83
2022/08/25 03:39:23;;;;;;;14.18;8.32;;;;;;;16.65;100.00;99313.34;4849865;29;20040;-84
2022/08/25 03:41:50;;;;;;;15.32;8.52;;;;;;;16.76;100.00;99319.72;4849773;29;20113;-84
2022/08/25 03:44:16;;;;;;;16.65;8.63;;;;;;;16.85;100.00;99315.66;4849993;29;20046;-83
2022/08/25 03:46:45;;;;;;;11.35;8.10;;;;;;;16.72;100.00;99302.66;4849484;29;20116;-83
2022/08/25 03:49:14;;;;;;;17.17;8.90;;;;;;;16.82;100.00;99313.47;4851107;29;20387;-85
2022/08/25 03:51:45;;;;;;;16.67;9.35;;;;;;;16.96;100.00;99312.22;4849128;29;20042;-83
2022/08/25 03:54:14;;;;;;;14.88;9.00;;;;;;;16.92;100.00;99292.53;4864961;29;20045;-83
2022/08/25 03:56:40;;;;;;;12.55;8.43;;;;;;;17.08;100.00;99306.13;4850298;29;20045;-82
2022/08/25 03:59:09;;;;;;;15.43;8.63;;;;;;;17.11;100.00;99301.19;4848556;29;20154;-83
2022/08/25 04:01:42;;;;;;;15.68;8.20;;;;;;;17.09;100.00;99313.06;4862920;29;20090;-82
2022/08/25 04:04:09;;;;;;;10.80;7.25;;;;;;;17.18;100.00;99311.69;4848099;29;20033;-83
2022/08/25 04:06:40;;;;;;;10.07;7.05;;;;;;;17.24;100.00;99305.44;4847025;29;20042;-84
2022/08/25 04:09:07;;;;;;;17.50;8.02;;;;;;;17.28;100.00;99306.59;4849048;29;20030;-84
2022/08/25 04:11:32;;;;;;;13.75;7.80;;;;;;;17.25;100.00;99288.50;4851597;29;20495;-84
2022/08/25 04:14:00;;;;;;;10.90;7.75;;;;;;;17.34;100.00;99294.25;4849739;29;20037;-84
2022/08/25 04:16:32;;;;;;;11.35;6.82;;;;;;;17.38;100.00;99290.09;4850711;29;20033;-83
2022/08/25 04:19:00;;;;;;;12.20;7.78;;;;;;;17.34;100.00;99288.16;4834600;29;20061;-83
2022/08/25 04:21:26;;;;;;;15.77;8.18;;;;;;;17.34;100.00;99280.19;4849226;29;20030;-83
2022/08/25 04:23:54;;;;;;;10.18;7.28;;;;;;;17.29;100.00;99286.19;4849644;29;20469;-83
2022/08/25 04:26:34;;;;;;;12.13;6.88;;;;;;;17.28;100.00;99273.97;4847273;29;20113;-84
2022/08/25 04:29:02;;;;;;;13.05;7.75;;;;;;;17.28;100.00;99274.75;4850445;29;20061;-84
2022/08/25 04:31:28;;;;;;;11.20;7.30;;;;;;;17.11;100.00;99282.63;4849671;29;20056;-84
2022/08/25 04:33:54;;;;;;;18.20;7.55;;;;;;;17.18;100.00;99290.47;4846967;29;20511;-84
2022/08/25 04:36:23;;;;;;;13.60;8.57;;;;;;;17.11;100.00;99276.53;4851504;29;20503;-84
2022/08/25 04:38:49;;;;;;;12.50;7.72;;;;;;;17.16;100.00;99271.34;4849154;29;20551;-83
2022/08/25 04:41:18;;;;;;;11.05;7.35;;;;;;;17.23;100.00;99260.59;4847919;29;20029;-83
2022/08/25 04:43:50;;;;;;;10.35;7.15;;;;;;;17.24;100.00;99268.31;4848171;29;20038;-83
2022/08/25 04:46:15;;;;;;;14.85;7.60;;;;;;;17.28;100.00;99279.28;4850016;29;20049;-84
2022/08/25 04:48:41;;;;;;;12.15;7.82;;;;;;;17.18;100.00;99282.50;4849039;29;20034;-84
2022/08/25 04:51:12;;;;;;;12.23;7.25;;;;;;;17.12;100.00;99267.53;4847681;29;20038;-83
2022/08/25 04:53:39;;;;;;;12.52;7.75;;;;;;;17.19;100.00;99276.16;4843526;29;20030;-84
2022/08/25 04:56:08;;;;;;;10.77;7.75;;;;;;;17.16;100.00;99279.28;4847206;29;20041;-84
2022/08/25 04:58:35;;;;;;;12.57;8.25;;;;;;;17.15;100.00;99274.19;4850111;29;20094;-84
2022/08/25 05:01:05;;;;;;;15.50;7.80;;;;;;;17.13;100.00;99279.75;4850567;29;20124;-85
2022/08/25 05:03:31;;;;;;;15.75;6.80;;;;;;;17.17;100.00;99291.50;4850020;29;20033;-84
2022/08/25 05:06:03;;;;;;;13.70;7.50;;;;;;;17.15;100.00;99285.63;4847604;29;20042;-83
2022/08/25 05:08:31;;;;;;;9.25;6.45;;;;;;;17.17;100.00;99288.03;4853203;29;20033;-84
2022/08/25 05:10:57;;;;;;;8.52;5.93;;;;;;;17.27;100.00;99293.56;4847402;29;20393;-84
2022/08/25 05:13:24;;;;;;;8.95;6.03;;;;;;;17.33;100.00;99291.84;4836597;29;20038;-84
2022/08/25 05:15:58;;;;;;;9.90;6.45;;;;;;;17.39;100.00;99290.91;4851542;29;20044;-85
2022/08/25 05:18:28;;;;;;;8.55;5.55;;;;;;;17.32;100.00;99290.22;4855967;29;20045;-84
2022/08/25 05:20:54;;;;;;;6.85;4.85;;;;;;;17.31;100.00;99297.38;4857546;29;20508;-84
2022/08/25 05:23:22;;;;;;;6.50;5.00;;;;;;;17.28;100.00;99279.28;4865627;29;20072;-85
2022/08/25 05:25:49;;;;;;;5.30;4.25;;;;;;;17.21;100.00;99279.38;4850468;29;20038;-85
2022/08/25 05:28:16;;;;;;;10.65;3.92;;;;;;;17.32;100.00;99295.53;4850569;29;20087;-85
2022/08/25 05:30:43;;;;;;;4.78;4.00;;;;;;;17.35;100.00;99297.72;4848361;29;20365;-84
2022/08/25 05:33:10;;;;;;;6.53;3.65;;;;;;;17.38;100.00;99310.53;4859898;29;20030;-84
2022/08/25 05:35:39;;;;;;;6.35;3.88;;;;;;;17.44;100.00;99317.53;4863415;29;20539;-84
2022/08/25 05:38:04;;;;;;;7.55;3.80;;;;;;;17.41;100.00;99315.34;4865743;29;20117;-85
2022/08/25 05:40:31;;;;;;;4.25;3.63;;;;;;;17.38;100.00;99321.13;4852125;29;20033;-86
2022/08/25 05:42:57;;;;;;;5.30;3.33;;;;;;;17.32;100.00;99324.72;4849644;29;20057;-84
2022/08/25 05:45:23;;;;;;;5.20;3.17;;;;;;;17.25;100.00;99325.63;4851631;29;20503;-83
2022/08/25 05:47:57;;;;;;;7.68;3.67;;;;;;;17.28;100.00;99329.69;4848621;29;20066;-83
2022/08/25 05:50:23;;;;;;;6.32;3.47;;;;;;;17.21;100.00;99316.53;4852492;29;20042;-83
2022/08/25 05:52:49;;;;;;;3.33;3.00;;;;;;;17.34;100.00;99330.59;4837824;29;20048;-82
2022/08/25 05:55:15;;;;;;;4.72;3.40;;;;;;;17.35;100.00;99325.03;4868558;29;20038;-83
2022/08/25 05:57:41;;;;;;;6.72;4.07;;;;;;;17.30;100.00;99324.16;4851879;29;20049;-83
2022/08/25 06:00:10;;;;;;;6.50;3.88;;;;;;;17.33;100.00;99319.16;4854133;29;20446;-83
2022/08/25 06:02:40;;;;;;;6.15;4.03;;;;;;;17.41;100.00;99328.63;4849607;29;20083;-84
2022/08/25 06:05:11;;;;;;;5.50;3.80;;;;;;;17.34;100.00;99309.38;4853675;29;20067;-84
2022/08/25 06:07:38;;;;;;;6.95;3.90;;;;;;;17.44;100.00;99320.19;4855218;29;20040;-84
2022/08/25 06:10:06;;;;;;;6.15;4.03;;;;;;;17.57;100.00;99324.44;4853764;29;20026;-83
2022/08/25 06:12:33;;;;;;;4.70;3.45;;;;;;;17.58;100.00;99322.59;4848142;29;20041;-83
2022/08/25 06:15:02;;;;;;;6.35;3.17;;;;;;;17.47;100.00;99325.03;4849336;29;20041;-83
2022/08/25 06:17:28;;;;;;;3.72;3.17;;;;;;;17.39;100.00;99320.09;4852091;29;20060;-83
2022/08/25 06:19:56;;;;;;;2.95;2.67;;;;;;;17.46;100.00;99327.94;4863963;29;20407;-84
2022/08/25 06:22:24;;;;;;;3.30;2.55;;;;;;;17.44;100.00;99322.84;4850880;29;20034;-82
2022/08/25 06:24:53;;;;;;;4.35;2.65;;;;;;;17.43;100.00;99326.53;4845101;29;20094;-82
2022/08/25 06:27:19;;;;;;;4.20;2.47;;;;;;;17.61;100.00;99327.44;4851320;29;20038;-82
2022/08/25 06:29:44;;;;;;;2.80;2.40;;;;;;;17.66;100.00;99316.91;4852271;29;20041;-83
2022/08/25 06:32:12;;;;;;;4.55;2.03;;;;;;;17.62;100.00;99326.41;4849249;29;20539;-83
2022/08/25 06:34:38;;;;;;;3.80;2.50;;;;;;;17.74;100.00;99335.16;4864109;29;20030;-83
2022/08/25 06:37:04;;;;;;;7.35;2.45;;;;;;;17.53;100.00;99324.13;4853780;29;20495;-83
2022/08/25 06:39:29;;;;;;;3.92;2.47;;;;;;;17.58;100.00;99309.34;4863506;29;20037;-83
2022/08/25 06:41:56;;;;;;;3.15;2.20;;;;;;;17.52;100.00;99319.03;4850880;29;20038;-83
2022/08/25 06:44:23;;;;;;;3.75;2.10;;;;;;;17.73;100.00;99330.06;4850229;29;20108;-83
2022/08/25 06:46:49;;;;;;;3.35;2.40;;;;;;;17.83;100.00;99323.13;4837371;29;20133;-83
2022/08/25 06:49:15;;;;;;;2.70;2.30;;;;;;;17.95;100.00;99327.59;4851204;29;20432;-83
2022/08/25 06:51:41;;;;;;;2.80;2.50;;;;;;;17.94;100.00;99321.47;4853629;29;20036;-83
2022/08/25 06:54:11;;;;;;;3.55;2.00;;;;;;;18.03;100.00;99321.94;4850931;29;20029;-83
2022/08/25 06:56:41;;;;;;;2.75;2.25;;;;;;;18.16;100.00;99328.00;4863563;29;20038;-83
2022/08/25 06:59:09;;;;;;;4.60;2.40;;;;;;;18.22;100.00;99335.03;4849422;29;20064;-84
2022/08/25 07:01:37;;;;;;;5.68;2.10;;;;;;;18.14;100.00;99325.56;4850927;29;20042;-84
2022/08/25 07:04:05;;;;;;;2.83;2.17;;;;;;;18.22;100.00;99337.69;4852147;29;20061;-84
2022/08/25 07:06:34;;;;;;;3.00;2.30;;;;;;;18.11;100.00;99321.56;4867388;29;20109;-83
2022/08/25 07:09:00;;;;;;;3.55;2.00;;;;;;;17.98;100.00;99335.09;4850027;29;20089;-83
2022/08/25 07:11:27;;;;;;;3.28;1.83;;;;;;;18.03;100.00;99332.56;4850014;29;20033;-83
2022/08/25 07:13:53;;;;;;;3.55;1.88;;;;;;;17.85;100.00;99321.03;4849093;29;20025;-83
2022/08/25 07:16:20;;;;;;;3.85;2.13;;;;;;;17.80;100.00;99323.59;4852552;29;20041;-83
2022/08/25 07:18:46;;;;;;;3.03;1.98;;;;;;;17.94;100.00;99340.06;4856860;29;20407;-82
2022/08/25 07:21:13;;;;;;;3.97;2.00;;;;;;;18.02;100.00;99341.56;4852691;29;20373;-82
2022/08/25 07:23:40;;;;;;;2.55;2.08;;;;;;;18.08;100.00;99353.91;4849151;29;20040;-80
2022/08/25 07:26:16;;;;;;;3.70;2.10;;;;;;;18.08;100.00;99351.25;4845694;29;20428;-82
2022/08/25 07:28:42;;;;;;;3.05;2.13;;;;;;;18.05;100.00;99351.72;4848734;29;20033;-81
2022/08/25 07:31:08;;;;;;;3.58;2.30;;;;;;;17.98;100.00;99343.06;4853214;29;20037;-82
2022/08/25 07:33:34;;;;;;;4.50;2.20;;;;;;;18.01;100.00;99358.50;4844184;29;20049;-80
2022/08/25 07:36:00;;;;;;;2.78;2.15;;;;;;;18.07;100.00;99354.94;4851397;29;20112;-80
2022/08/25 07:38:26;;;;;;;2.92;2.13;;;;;;;18.13;100.00;99361.97;4847355;29;20030;-80
2022/08/25 07:40:54;;;;;;;3.78;2.15;;;;;;;18.21;100.00;99359.97;4862870;29;20040;-80
2022/08/25 07:43:21;;;;;;;3.55;2.53;;;;;;;18.15;100.00;99359.06;4863275;29;20038;-80
2022/08/25 07:45:47;;;;;;;2.55;2.03;;;;;;;18.08;100.00;99351.25;4847947;29;20038;-80
2022/08/25 07:48:14;;;;;;;6.20;2.17;;;;;;;17.83;100.00;99344.34;4859706;29;20046;-79
2022/08/25 07:50:44;;;;;;;4.85;2.00;;;;;;;17.84;100.00;99351.28;4846297;29;20425;-80
2022/08/25 07:53:10;;;;;;;2.75;2.13;;;;;;;17.97;100.00;99344.09;4847833;29;20037;-79
2022/08/25 07:55:37;;;;;;;3.40;2.20;;;;;;;17.91;100.00;99348.50;4851181;29;20100;-79
2022/08/25 07:58:04;;;;;;;2.38;1.90;;;;;;;17.84;100.00;99356.59;4853162;29;20124;-79
2022/08/25 08:00:32;;;;;;;3.17;2.33;;;;;;;17.95;100.00;99356.81;4848439;29;20093;-79
2022/08/25 08:02:59;;;;;;;3.85;2.33;;;;;;;17.98;100.00;99353.69;4843530;29;20057;-79
2022/08/25 08:05:26;;;;;;;2.40;2.20;;;;;;;17.96;100.00;99363.72;4844524;29;20026;-79
2022/08/25 08:07:53;;;;;;;3.88;2.05;;;;;;;17.82;100.00;99360.53;4846590;29;20085;-79
2022/08/25 08:10:20;;;;;;;4.05;2.47;;;;;;;17.86;100.00;99369.66;4849127;29;20041;-78
2022/08/25 08:12:46;;;;;;;5.65;2.67;;;;;;;17.80;100.00;99366.06;4850472;29;20628;-79
2022/08/25 08:15:13;;;;;;;2.13;1.92;;;;;;;18.06;100.00;99355.97;4845301;29;20516;-78
2022/08/25 08:17:39;;;;;;;5.43;2.75;;;;;;;17.98;100.00;99348.38;4843694;29;20061;-79
2022/08/25 08:20:09;;;;;;;17.00;3.17;;;;;;;18.13;100.00;99361.16;4844844;29;20141;-78
2022/08/25 08:22:36;;;;;;;7.85;3.17;;;;;;;17.61;100.00;99367.25;4861416;29;20061;-79
2022/08/25 08:25:02;;;;;;;7.75;2.72;;;;;;;17.75;100.00;99373.94;4848785;29;20121;-80
2022/08/25 08:27:27;;;;;;;6.40;2.40;;;;;;;17.75;100.00;99370.47;4846970;29;20601;-80
2022/08/25 08:29:53;;;;;;;5.07;2.60;;;;;;;17.77;100.00;99377.16;4844295;29;20034;-79
2022/08/25 08:32:25;;;;;;;5.18;2.70;;;;;;;17.66;100.00;99373.50;4847523;29;20162;-80
2022/08/25 08:34:51;;;;;;;3.95;2.40;;;;;;;17.49;100.00;99380.53;4846816;29;20037;-79
2022/08/25 08:37:18;;;;;;;2.90;2.60;;;;;;;17.42;100.00;99368.22;4843860;29;20511;-79
2022/08/25 08:39:44;;;;;;;5.00;2.85;;;;;;;17.35;100.00;99386.06;4849354;29;20030;-79
2022/08/25 08:42:41;;;;;;;5.22;2.78;;;;;;;17.39;100.00;99381.13;4829384;29;20042;-79
2022/08/25 08:45:30;;;;;;;5.03;2.83;;;;;;;17.49;100.00;99378.72;4847272;29;20459;-79
2022/08/25 08:48:09;;;;;;;5.75;3.20;;;;;;;17.54;100.00;99385.94;4844529;29;20045;-79
2022/08/25 08:50:48;;;;;;;5.72;3.00;;;;;;;17.52;100.00;99375.59;4859124;29;20094;-79
2022/08/25 08:53:53;;;;;;;8.15;3.00;;;;;;;17.66;100.00;99392.06;4846941;29;20065;-79
2022/08/25 08:56:24;;;;;;;6.68;3.47;;;;;;;17.49;100.00;99393.81;4816937;29;20060;-80
2022/08/25 08:58:57;;;;;;;6.18;3.60;;;;;;;17.34;100.00;99394.28;4841177;29;20046;-81
2022/08/25 09:01:32;;;;;;;9.50;3.80;;;;;;;17.40;100.00;99382.72;4846372;29;20433;-81
2022/08/25 09:04:10;;;;;;;5.35;3.45;;;;;;;17.37;100.00;99385.84;4841892;29;20034;-82
2022/08/25 09:06:43;;;;;;;5.07;3.50;;;;;;;17.39;100.00;99371.31;4843641;29;20037;-83
2022/08/25 09:09:13;;;;;;;8.65;3.63;;;;;;;17.39;100.00;99375.81;4847210;29;20093;-84
2022/08/25 09:11:59;;;;;;;6.22;3.72;;;;;;;17.40;100.00;99383.56;4847069;29;20538;-85
2022/08/25 09:14:40;;;;;;;8.25;4.07;;;;;;;17.21;100.00;99384.69;4845072;29;20034;-84
2022/08/25 09:17:33;;;;;;;5.55;4.10;;;;;;;17.11;100.00;99385.28;4847406;29;20054;-83
2022/08/25 09:20:20;;;;;;;7.97;3.90;;;;;;;16.93;100.00;99384.28;4840694;29;20203;-84
2022/08/25 09:23:10;;;;;;;8.15;3.83;;;;;;;16.80;100.00;99373.88;4845831;29;20029;-83
2022/08/25 09:26:14;;;;;;;8.07;4.80;;;;;;;16.61;100.00;99411.03;4863932;29;20082;-85
2022/08/25 09:28:52;;;;;;;8.13;4.80;;;;;;;16.77;100.00;99408.78;4846394;29;20034;-84
2022/08/25 09:31:34;;;;;;;8.85;3.83;;;;;;;16.49;100.00;99396.94;4828480;29;20037;-85
2022/08/25 09:34:02;;;;;;;10.30;3.95;;;;;;;15.88;100.00;99408.25;4847853;29;20106;-85
2022/08/25 09:36:29;;;;;;;14.45;4.50;;;;;;;15.49;100.00;99421.63;4848118;29;20511;-86
2022/08/25 09:38:55;;;;;;;9.18;4.88;;;;;;;14.94;100.00;99412.53;4849849;29;20029;-87
2022/08/25 09:41:42;;;;;;;8.65;4.28;;;;;;;14.55;100.00;99404.56;4832210;29;20490;-87
2022/08/25 09:44:40;;;;;;;9.25;4.70;;;;;;;14.56;100.00;99426.53;4840855;29;20054;-88
2022/08/25 09:47:16;;;;;;;11.20;5.50;;;;;;;14.76;100.00;99407.16;4851078;29;20041;-87
2022/08/25 09:49:43;;;;;;;12.93;6.22;;;;;;;14.81;100.00;99407.31;4850161;29;20034;-87
2022/08/25 09:52:27;;;;;;;10.48;6.95;;;;;;;15.27;100.00;99416.72;4860179;29;20551;-87
2022/08/25 09:54:58;;;;;;;14.18;7.70;;;;;;;15.46;100.00;99416.78;4847443;29;20093;-87
2022/08/25 09:57:42;;;;;;;10.63;7.57;;;;;;;15.78;100.00;99400.81;4848816;29;20113;-87
2022/08/25 10:00:25;;;;;;;14.73;8.88;;;;;;;15.96;100.00;99409.81;4851707;29;20034;-88
2022/08/25 10:03:19;;;;;;;16.25;9.32;;;;;;;15.89;100.00;99406.41;4863067;29;20073;-86
2022/08/25 10:05:44;;;;;;;10.57;7.53;;;;;;;15.87;100.00;99403.16;4852942;29;20033;-87
2022/08/25 10:08:29;;;;;;;16.33;8.73;;;;;;;15.86;100.00;99389.13;4852571;29;20491;-85
2022/08/25 10:10:56;;;;;;;13.32;9.07;;;;;;;15.97;100.00;99392.91;4849752;29;20042;-83
2022/08/25 10:13:34;;;;;;;14.02;8.85;;;;;;;16.13;100.00;99387.00;4850334;29;20030;-83
2022/08/25 10:16:11;;;;;;;20.77;10.05;;;;;;;16.28;100.00;99388.44;4853428;29;20116;-83
2022/08/25 10:18:38;;;;;;;17.83;10.63;;;;;;;16.33;100.00;99378.00;4833481;29;20055;-83
2022/08/25 10:21:09;;;;;;;17.83;10.48;;;;;;;16.56;100.00;99385.22;4853518;29;20090;-83
2022/08/25 10:23:39;;;;;;;18.55;9.75;;;;;;;16.67;100.00;99386.28;4849162;29;20029;-83
2022/08/25 10:26:15;;;;;;;14.18;9.88;;;;;;;16.88;100.00;99384.13;4856734;29;20541;-83
2022/08/25 10:28:59;;;;;;;20.05;9.90;;;;;;;16.93;100.00;99383.47;4858559;29;20117;-83
2022/08/25 10:31:33;;;;;;;23.45;11.70;;;;;;;16.87;100.00;99385.19;4863351;29;20033;-83
2022/08/25 10:34:29;;;;;;;18.50;9.55;;;;;;;17.04;100.00;99387.19;4863872;29;20029;-83
2022/08/25 10:37:09;;;;;;;14.52;9.27;;;;;;;17.05;100.00;99376.38;4858555;29;20050;-83
2022/08/25 10:39:40;;;;;;;17.58;9.93;;;;;;;17.25;100.00;99376.03;4864391;29;20037;-83
2022/08/25 10:42:31;;;;;;;17.05;10.50;;;;;;;17.40;100.00;99370.28;4863716;29;20029;-83
2022/08/25 10:48:12;;;;;;;16.33;10.23;;;;;;;17.33;100.00;99356.31;4858026;29;20061;-83
2022/08/25 10:50:51;;;;;;;16.42;9.90;;;;;;;17.34;100.00;99342.00;4861074;29;20037;-84
2022/08/25 10:53:26;;;;;;;16.25;10.20;;;;;;;17.35;100.00;99340.16;4857581;29;20033;-83
2022/08/25 10:55:59;;;;;;;15.65;9.70;;;;;;;17.37;100.00;99340.75;4865043;29;20053;-83
2022/08/25 10:58:30;;;;;;;19.90;10.35;;;;;;;17.21;100.00;99345.69;4858967;29;20182;-83
2022/08/25 11:01:27;;;;;;;19.17;10.63;;;;;;;17.22;100.00;99333.25;4858718;29;20558;-83
2022/08/25 11:04:06;;;;;;;17.83;10.13;;;;;;;17.26;100.00;99340.50;4868218;29;20034;-83
2022/08/25 11:06:37;;;;;;;20.75;10.80;;;;;;;17.36;100.00;99344.44;4854793;29;20030;-83
2022/08/25 11:09:09;;;;;;;17.75;11.63;;;;;;;17.43;100.00;99347.78;4854775;29;20033;-84
2022/08/25 11:11:46;;;;;;;19.40;11.20;;;;;;;17.76;100.00;99350.84;4867218;29;20044;-83
2022/08/25 11:14:17;;;;;;;19.00;12.30;;;;;;;17.88;100.00;99340.19;4852891;29;20053;-83
2022/08/25 11:16:55;;;;;;;21.60;12.80;;;;;;;18.14;100.00;99344.19;4865258;29;20037;-84
2022/08/25 11:19:31;;;;;;;19.63;10.77;;;;;;;17.95;100.00;99341.66;4861165;29;20046;-83
2022/08/25 11:22:06;;;;;;;14.88;11.07;;;;;;;17.74;100.00;99345.78;4864984;29;20041;-83
2022/08/25 11:24:57;;;;;;;24.58;12.68;;;;;;;17.85;100.00;99339.63;4860638;29;20094;-83
2022/08/25 11:27:31;;;;;;;18.23;11.05;;;;;;;17.79;100.00;99326.50;4849957;29;20050;-83
2022/08/25 11:30:06;;;;;;;15.35;10.23;;;;;;;17.79;100.00;99345.09;4847256;29;20033;-83
2022/08/25 11:32:34;;;;;;;13.30;8.10;;;;;;;17.69;100.00;99348.34;4870957;29;20026;-83
2022/08/25 11:35:06;;;;;;;11.57;8.38;;;;;;;17.71;100.00;99335.63;4854807;29;20041;-83